Time;durP1;ratioP1;P1;durP2;ratioP2;P2;SDS_P1;SDS_P2;PMS_P1;PMS_P2;Temp;Humidity;BMP_temperature;BMP_pressure;BME280_temperature;BME280_humidity;BME280_pressure;Samples;Min_cycle;Max_cycle;Signal;HPM_P1;HPM_P2
2022/07/02 04:02:07;;;;;;;4.93;4.63;;;14.70;99.90;;;;;;5243694;23;20489;-66
2022/07/02 04:04:33;;;;;;;6.00;4.10;;;14.60;99.90;;;;;;4994210;28;20482;-66
2022/07/02 04:07:00;;;;;;;6.33;4.83;;;14.60;99.90;;;;;;4993465;28;20941;-67
2022/07/02 04:09:27;;;;;;;3.87;3.67;;;14.60;99.90;;;;;;4994114;28;20944;-67
2022/07/02 04:11:54;;;;;;;4.80;4.40;;;14.60;99.90;;;;;;4994334;28;20976;-66
2022/07/02 04:14:21;;;;;;;6.83;4.67;;;14.60;99.90;;;;;;4994469;28;20520;-67
2022/07/02 04:16:47;;;;;;;7.00;4.53;;;14.60;99.90;;;;;;4994116;28;20457;-67
2022/07/02 04:19:15;;;;;;;5.53;5.20;;;14.60;99.90;;;;;;4994418;28;20458;-68
2022/07/02 04:21:42;;;;;;;5.23;4.87;;;14.60;99.90;;;;;;4994174;28;20477;-68
2022/07/02 04:24:09;;;;;;;5.27;4.77;;;14.50;99.90;;;;;;4994189;28;20481;-66
2022/07/02 04:26:36;;;;;;;5.13;4.50;;;14.50;99.90;;;;;;4994400;28;20457;-66
2022/07/02 04:29:02;;;;;;;5.00;4.60;;;14.50;99.90;;;;;;4994514;28;20454;-66
2022/07/02 04:31:29;;;;;;;5.20;4.70;;;14.50;99.90;;;;;;4994290;28;20473;-67
2022/07/02 04:33:56;;;;;;;4.90;4.60;;;14.50;99.90;;;;;;4994350;28;20458;-66
2022/07/02 04:36:24;;;;;;;5.03;4.73;;;14.50;99.90;;;;;;4994544;28;20453;-66
2022/07/02 04:38:51;;;;;;;5.13;4.63;;;14.50;99.90;;;;;;4993910;28;20976;-66
2022/07/02 04:41:18;;;;;;;5.10;4.80;;;14.50;99.90;;;;;;4994087;28;20477;-66
2022/07/02 04:43:44;;;;;;;5.37;5.07;;;14.60;99.90;;;;;;4998536;28;20458;-66
2022/07/02 04:46:11;;;;;;;4.60;4.30;;;14.60;99.90;;;;;;4997933;28;20505;-66
2022/07/02 04:48:38;;;;;;;4.17;3.70;;;14.70;99.90;;;;;;4994225;28;20515;-66
2022/07/02 04:51:05;;;;;;;4.17;3.97;;;14.70;99.90;;;;;;4994198;28;20481;-66
2022/07/02 04:53:33;;;;;;;5.53;5.13;;;14.70;99.90;;;;;;4993947;28;20462;-66
2022/07/02 04:55:59;;;;;;;4.90;4.60;;;14.70;99.90;;;;;;4993979;28;20450;-66
2022/07/02 04:58:26;;;;;;;5.07;4.77;;;14.80;99.90;;;;;;4993989;28;20454;-66
2022/07/02 05:00:53;;;;;;;5.87;5.17;;;14.80;99.90;;;;;;4994368;28;20489;-66
2022/07/02 05:03:19;;;;;;;4.73;4.40;;;14.80;99.90;;;;;;4993950;28;20446;-66
2022/07/02 05:05:46;;;;;;;5.40;5.00;;;14.80;99.90;;;;;;4993860;28;20485;-66
2022/07/02 05:08:13;;;;;;;6.73;5.67;;;14.80;99.90;;;;;;4993773;28;20454;-67
2022/07/02 05:10:41;;;;;;;5.27;4.83;;;14.80;99.90;;;;;;4994010;28;20478;-66
2022/07/02 05:13:07;;;;;;;6.40;5.90;;;14.90;99.90;;;;;;4993998;28;20461;-66
2022/07/02 05:15:34;;;;;;;6.50;6.00;;;14.90;99.90;;;;;;4994189;28;20623;-66
2022/07/02 05:18:01;;;;;;;6.40;5.67;;;15.00;99.90;;;;;;4995830;28;20453;-66
2022/07/02 05:20:28;;;;;;;26.03;5.80;;;15.10;99.90;;;;;;4997559;28;20457;-66
2022/07/02 05:22:54;;;;;;;8.17;5.70;;;15.20;99.90;;;;;;4998174;28;20462;-66
2022/07/02 05:25:21;;;;;;;5.73;5.23;;;15.20;99.90;;;;;;4997214;28;20819;-66
2022/07/02 05:27:49;;;;;;;7.03;5.70;;;15.20;99.90;;;;;;4997228;28;20464;-66
2022/07/02 05:30:16;;;;;;;5.80;5.20;;;15.30;99.90;;;;;;4997280;28;20462;-67
2022/07/02 05:32:43;;;;;;;7.57;5.80;;;15.40;99.90;;;;;;4997188;28;20458;-66
2022/07/02 05:35:10;;;;;;;6.10;4.83;;;15.50;99.90;;;;;;4998075;28;20460;-66
2022/07/02 05:37:36;;;;;;;5.03;4.67;;;15.60;99.90;;;;;;4998454;28;20457;-66
2022/07/02 05:40:04;;;;;;;5.20;4.80;;;15.70;99.90;;;;;;4998434;28;20453;-67
2022/07/02 05:42:31;;;;;;;6.40;6.00;;;15.80;99.90;;;;;;4998082;28;20977;-66
2022/07/02 05:44:59;;;;;;;5.50;5.03;;;15.90;99.90;;;;;;4997399;28;20568;-66
2022/07/02 05:47:26;;;;;;;4.93;4.53;;;16.00;99.90;;;;;;4997109;28;20488;-66
2022/07/02 05:49:53;;;;;;;4.43;4.23;;;16.10;99.90;;;;;;4997165;28;20453;-66
2022/07/02 05:52:19;;;;;;;4.20;4.00;;;16.30;99.90;;;;;;4997221;28;20509;-67
2022/07/02 05:54:46;;;;;;;4.80;4.10;;;16.40;99.90;;;;;;4997223;28;20460;-66
2022/07/02 05:57:13;;;;;;;4.50;3.83;;;16.50;99.90;;;;;;4997550;28;20476;-66
2022/07/02 05:59:39;;;;;;;3.90;3.60;;;16.70;99.90;;;;;;4996922;28;20457;-66
2022/07/02 06:02:07;;;;;;;3.97;3.37;;;16.80;99.90;;;;;;4996887;28;20489;-66
2022/07/02 06:04:34;;;;;;;3.90;3.70;;;16.90;99.90;;;;;;4997029;28;20936;-67
2022/07/02 06:09:46;;;;;;;4.43;3.17;;;17.20;99.90;;;;;;4997034;28;20477;-65
2022/07/02 06:12:12;;;;;;;3.23;2.93;;;17.40;99.90;;;;;;4996420;28;20980;-65
2022/07/02 06:14:39;;;;;;;3.00;2.83;;;17.50;99.90;;;;;;4996394;28;20944;-66
2022/07/02 06:17:07;;;;;;;2.90;2.60;;;17.70;99.90;;;;;;4996421;28;20460;-66
2022/07/02 06:19:34;;;;;;;4.40;2.87;;;17.90;99.90;;;;;;4996544;28;20464;-67
2022/07/02 06:22:01;;;;;;;2.83;2.73;;;18.00;99.90;;;;;;4996271;28;20478;-66
2022/07/02 06:24:28;;;;;;;3.10;2.37;;;18.10;99.90;;;;;;4997081;28;20458;-66
2022/07/02 06:26:54;;;;;;;2.50;2.40;;;18.20;99.90;;;;;;4996589;28;20831;-66
2022/07/02 06:29:21;;;;;;;2.33;2.13;;;18.30;99.90;;;;;;4995833;28;20458;-66
2022/07/02 06:31:48;;;;;;;2.20;2.10;;;18.50;99.90;;;;;;4996462;28;20891;-65
2022/07/02 06:34:16;;;;;;;2.17;2.07;;;18.70;99.90;;;;;;4997089;28;20465;-65
2022/07/02 06:36:43;;;;;;;3.63;2.40;;;19.00;99.90;;;;;;4996156;28;20449;-66
2022/07/02 06:39:10;;;;;;;3.57;2.00;;;19.10;99.90;;;;;;4996154;28;20462;-67
2022/07/02 06:44:21;;;;;;;2.10;2.00;;;19.50;99.90;;;;;;4996107;28;20472;-65
2022/07/02 06:46:47;;;;;;;1.83;1.73;;;19.80;99.90;;;;;;4995954;28;20482;-66
2022/07/02 06:49:18;;;;;;;1.90;1.80;;;20.00;99.90;;;;;;4996178;28;20439;-66
2022/07/02 06:51:45;;;;;;;3.80;1.80;;;20.30;99.90;;;;;;4995993;28;20477;-66
2022/07/02 06:54:12;;;;;;;1.83;1.73;;;20.50;99.90;;;;;;4996119;28;20449;-67
2022/07/02 06:56:39;;;;;;;1.10;1.10;;;20.80;99.90;;;;;;4995703;28;20464;-66
2022/07/02 06:59:06;;;;;;;3.80;1.30;;;21.00;99.90;;;;;;4995634;28;20458;-67
2022/07/02 07:01:33;;;;;;;1.20;1.20;;;21.30;99.90;;;;;;4995271;28;21008;-66
2022/07/02 07:04:00;;;;;;;1.03;1.03;;;21.70;99.90;;;;;;4995643;28;20449;-67
2022/07/02 07:06:28;;;;;;;1.03;1.03;;;22.20;99.90;;;;;;4995329;28;20815;-66
2022/07/02 07:08:55;;;;;;;0.97;0.90;;;22.70;99.90;;;;;;4995683;28;20877;-67
2022/07/02 07:11:22;;;;;;;1.03;0.97;;;23.10;99.90;;;;;;4995774;28;20486;-67
2022/07/02 07:13:50;;;;;;;0.80;0.80;;;23.40;99.90;;;;;;4995139;28;20521;-68
2022/07/02 07:16:16;;;;;;;0.90;0.90;;;23.90;99.90;;;;;;4995301;28;20454;-67
2022/07/02 07:18:44;;;;;;;1.63;1.07;;;24.40;99.90;;;;;;4995334;28;20874;-68
2022/07/02 07:21:10;;;;;;;1.10;1.10;;;24.80;99.90;;;;;;4995080;28;21021;-67
2022/07/02 07:23:38;;;;;;;2.50;1.00;;;25.30;99.90;;;;;;4995189;28;20493;-67
2022/07/02 07:26:05;;;;;;;2.43;1.43;;;25.90;99.90;;;;;;4994963;28;20509;-67
2022/07/02 07:28:32;;;;;;;1.10;1.00;;;26.20;99.90;;;;;;4995033;28;20458;-67
2022/07/02 07:30:58;;;;;;;0.80;0.80;;;26.70;99.90;;;;;;4994936;28;20474;-67
2022/07/02 07:33:25;;;;;;;0.87;0.87;;;27.00;99.90;;;;;;4994701;28;20968;-67
2022/07/02 07:35:52;;;;;;;0.70;0.70;;;27.50;99.90;;;;;;4995019;28;20453;-67
2022/07/02 07:38:18;;;;;;;2.40;1.30;;;27.60;95.50;;;;;;4994840;28;20453;-67
2022/07/02 07:40:47;;;;;;;0.90;0.90;;;27.80;94.50;;;;;;4993936;28;20481;-67
2022/07/02 07:43:13;;;;;;;1.63;0.90;;;27.90;94.20;;;;;;4995378;28;20857;-67
2022/07/02 07:45:40;;;;;;;4.67;1.03;;;28.10;93.00;;;;;;4995305;28;20481;-67
2022/07/02 07:48:07;;;;;;;1.17;0.80;;;28.30;92.90;;;;;;4994933;28;20453;-67
2022/07/02 07:50:34;;;;;;;0.63;0.63;;;28.50;93.70;;;;;;4994856;28;20528;-67
2022/07/02 07:53:01;;;;;;;1.63;0.87;;;28.90;91.20;;;;;;4994642;28;20462;-67
2022/07/02 07:55:27;;;;;;;0.80;0.80;;;29.00;91.00;;;;;;4994543;28;20454;-68
2022/07/02 07:57:55;;;;;;;0.70;0.67;;;29.20;88.10;;;;;;4995488;28;20768;-68
2022/07/02 08:00:22;;;;;;;1.93;1.00;;;29.30;87.30;;;;;;4995344;28;20526;-67
2022/07/02 08:02:49;;;;;;;2.37;0.80;;;29.50;88.60;;;;;;4995794;28;20445;-68
2022/07/02 08:05:16;;;;;;;0.97;0.97;;;29.70;85.20;;;;;;4995774;28;20501;-68
2022/07/02 08:07:42;;;;;;;1.27;0.80;;;29.80;81.60;;;;;;4995313;28;20457;-68
2022/07/02 08:10:11;;;;;;;1.00;1.00;;;30.10;85.90;;;;;;4994699;28;20476;-68
2022/07/02 08:12:38;;;;;;;1.60;0.87;;;30.20;80.80;;;;;;4994653;28;20454;-68
2022/07/02 08:15:07;;;;;;;0.90;0.80;;;30.40;79.60;;;;;;4995265;28;20468;-68
2022/07/02 08:17:34;;;;;;;0.93;0.93;;;30.40;76.90;;;;;;4994691;28;20453;-68
2022/07/02 08:20:02;;;;;;;1.23;1.07;;;30.10;78.70;;;;;;4994467;28;20460;-68
2022/07/02 08:22:29;;;;;;;2.90;1.40;;;30.20;76.10;;;;;;4994463;28;20583;-68
2022/07/02 08:24:56;;;;;;;1.23;1.00;;;30.10;74.40;;;;;;4994531;28;20489;-67
2022/07/02 08:27:23;;;;;;;1.20;1.20;;;30.10;75.50;;;;;;4994517;28;20485;-68
2022/07/02 08:29:49;;;;;;;0.90;0.90;;;30.40;75.40;;;;;;4994482;28;20454;-68
2022/07/02 08:32:17;;;;;;;1.30;1.20;;;30.50;76.10;;;;;;4993990;28;20852;-67
2022/07/02 08:34:44;;;;;;;0.83;0.83;;;30.80;73.10;;;;;;4994244;28;20458;-67
2022/07/02 08:37:11;;;;;;;3.20;0.97;;;31.10;71.20;;;;;;4994257;28;20461;-67
2022/07/02 08:39:38;;;;;;;0.60;0.60;;;31.30;70.70;;;;;;4994372;28;20457;-68
2022/07/02 08:42:06;;;;;;;1.10;1.10;;;31.60;66.90;;;;;;4994037;28;20999;-67
2022/07/02 08:44:33;;;;;;;1.17;1.17;;;32.00;63.30;;;;;;4994189;28;20457;-67
2022/07/02 08:47:01;;;;;;;0.90;0.90;;;32.20;62.20;;;;;;4994300;28;20469;-67
2022/07/02 08:49:33;;;;;;;1.03;0.80;;;32.50;63.50;;;;;;4993730;28;20948;-68
2022/07/02 08:52:03;;;;;;;0.60;0.60;;;32.70;58.30;;;;;;4994227;28;20485;-68
2022/07/02 08:54:31;;;;;;;0.80;0.80;;;32.80;57.80;;;;;;4997967;28;20521;-67
2022/07/02 08:57:00;;;;;;;2.60;1.17;;;32.80;58.10;;;;;;4997743;28;20461;-68
2022/07/02 08:59:27;;;;;;;0.70;0.70;;;33.10;57.60;;;;;;4997421;28;21011;-68
2022/07/02 09:01:55;;;;;;;0.70;0.70;;;33.00;56.20;;;;;;4997548;28;20889;-67
2022/07/02 09:04:24;;;;;;;1.90;0.90;;;33.20;58.50;;;;;;4997468;28;20452;-68
2022/07/02 09:06:57;;;;;;;1.53;1.10;;;33.20;56.30;;;;;;4997462;28;20473;-67
2022/07/02 09:09:24;;;;;;;1.10;0.80;;;33.40;60.40;;;;;;4997652;28;20445;-67
2022/07/02 09:11:51;;;;;;;1.03;1.03;;;33.50;59.50;;;;;;4997442;28;20473;-68
2022/07/02 09:14:18;;;;;;;0.83;0.83;;;33.80;56.70;;;;;;4997826;28;20458;-68
2022/07/02 09:16:46;;;;;;;1.17;0.93;;;33.80;57.80;;;;;;4997339;28;20449;-68
2022/07/02 09:19:13;;;;;;;1.40;0.83;;;34.10;57.50;;;;;;4997532;28;20449;-68
2022/07/02 09:21:43;;;;;;;1.10;1.00;;;33.60;57.90;;;;;;4997164;28;20480;-67
2022/07/02 09:24:12;;;;;;;0.70;0.70;;;33.20;59.20;;;;;;4996995;28;20460;-68
2022/07/02 09:26:38;;;;;;;4.30;1.20;;;32.80;60.00;;;;;;4997361;28;20477;-67
2022/07/02 09:29:05;;;;;;;1.63;0.73;;;32.80;58.40;;;;;;4997285;28;20465;-67
2022/07/02 09:31:32;;;;;;;1.63;0.83;;;33.00;60.90;;;;;;4997300;28;20477;-67
2022/07/02 09:34:00;;;;;;;3.13;1.33;;;33.30;58.50;;;;;;4997404;28;20458;-68
2022/07/02 09:36:27;;;;;;;0.67;0.67;;;33.50;61.30;;;;;;4997213;28;21143;-67
2022/07/02 09:38:54;;;;;;;1.83;1.00;;;33.30;57.70;;;;;;4996990;28;20457;-67
2022/07/02 09:41:24;;;;;;;0.90;0.87;;;33.50;56.90;;;;;;4996974;28;20511;-67
2022/07/02 09:43:56;;;;;;;2.13;0.80;;;33.60;55.60;;;;;;4997272;28;20508;-68
2022/07/02 09:46:23;;;;;;;0.93;0.93;;;33.50;55.30;;;;;;4996777;28;20508;-68
2022/07/02 09:48:50;;;;;;;1.00;1.00;;;33.50;55.80;;;;;;4996777;28;20510;-68
2022/07/02 09:51:18;;;;;;;0.90;0.90;;;33.50;55.10;;;;;;4996587;28;20488;-66
2022/07/02 09:53:48;;;;;;;3.67;0.90;;;33.90;53.40;;;;;;4996357;28;20940;-66
2022/07/02 09:56:15;;;;;;;0.80;0.80;;;34.10;53.70;;;;;;4996648;28;20454;-67
2022/07/02 09:58:43;;;;;;;1.00;1.00;;;34.40;53.10;;;;;;4996479;28;20491;-67
2022/07/02 10:01:10;;;;;;;1.30;1.20;;;34.70;53.90;;;;;;4996132;28;20996;-67
2022/07/02 10:03:50;;;;;;;0.73;0.73;;;34.70;51.70;;;;;;4996245;28;20512;-67
2022/07/02 10:06:18;;;;;;;0.80;0.80;;;34.90;51.40;;;;;;4996657;28;20975;-67
2022/07/02 10:08:45;;;;;;;0.80;0.80;;;34.50;49.70;;;;;;4997214;28;20460;-67
2022/07/02 10:11:14;;;;;;;2.37;0.80;;;34.10;51.40;;;;;;4997112;28;20476;-67
2022/07/02 10:13:43;;;;;;;0.97;0.97;;;34.30;51.10;;;;;;4996325;28;20460;-68
2022/07/02 10:16:14;;;;;;;1.07;0.93;;;34.50;51.80;;;;;;4996636;28;20457;-67
2022/07/02 10:18:42;;;;;;;1.60;1.50;;;34.60;47.80;;;;;;4996521;28;20453;-67
2022/07/02 10:21:11;;;;;;;1.70;1.60;;;33.70;48.20;;;;;;4996853;28;20524;-68
2022/07/02 10:23:39;;;;;;;2.60;2.40;;;33.20;48.60;;;;;;4996365;28;20454;-68
2022/07/02 10:26:06;;;;;;;0.80;0.80;;;32.80;50.70;;;;;;4996169;28;20486;-67
2022/07/02 10:28:34;;;;;;;1.20;1.10;;;32.80;50.60;;;;;;4996784;28;20454;-68
2022/07/02 10:31:02;;;;;;;1.40;1.30;;;32.60;49.20;;;;;;4995675;28;20984;-68
2022/07/02 10:33:33;;;;;;;2.40;2.20;;;32.30;48.90;;;;;;4996105;28;20508;-67
2022/07/02 10:36:02;;;;;;;3.63;2.17;;;32.10;48.70;;;;;;4995979;28;20441;-68
2022/07/02 10:38:30;;;;;;;2.47;1.30;;;32.20;49.20;;;;;;4995962;28;20767;-67
2022/07/02 10:40:57;;;;;;;1.17;1.17;;;32.20;49.10;;;;;;4995613;28;20484;-68
2022/07/02 10:43:26;;;;;;;0.63;0.63;;;32.00;48.70;;;;;;4995665;28;20848;-68
2022/07/02 10:46:04;;;;;;;1.50;0.57;;;31.90;47.70;;;;;;4996716;28;20453;-68
2022/07/02 10:48:33;;;;;;;1.20;1.20;;;32.30;50.10;;;;;;4999958;28;20466;-68
2022/07/02 10:51:00;;;;;;;0.97;0.97;;;32.30;48.50;;;;;;4999623;28;20557;-68
2022/07/02 10:53:29;;;;;;;1.10;1.00;;;32.00;47.60;;;;;;4995761;28;20465;-68
2022/07/02 10:56:02;;;;;;;0.70;0.70;;;31.60;47.70;;;;;;4996379;28;20453;-68
2022/07/02 10:58:30;;;;;;;1.00;0.90;;;31.60;48.20;;;;;;4995983;28;20460;-68
2022/07/02 11:00:57;;;;;;;0.80;0.80;;;31.70;50.40;;;;;;4995782;28;20901;-67
2022/07/02 11:03:27;;;;;;;1.00;1.00;;;31.80;48.00;;;;;;4996418;28;20508;-67
2022/07/02 11:05:56;;;;;;;1.10;0.90;;;31.90;49.20;;;;;;4997651;28;20454;-67
2022/07/02 11:08:48;;;;;;;0.80;0.80;;;31.70;48.90;;;;;;5000557;28;20453;-67
2022/07/02 11:11:17;;;;;;;0.93;0.90;;;31.40;49.70;;;;;;4996903;28;20481;-69
2022/07/02 11:13:47;;;;;;;1.13;1.13;;;31.70;51.60;;;;;;4996098;28;20457;-67
2022/07/02 11:16:26;;;;;;;0.70;0.70;;;31.70;52.30;;;;;;4996011;28;20436;-68
2022/07/02 11:18:56;;;;;;;2.30;1.20;;;31.80;49.80;;;;;;4995694;28;20438;-67
2022/07/02 11:21:24;;;;;;;3.10;2.80;;;31.90;51.50;;;;;;4995482;28;20474;-68
2022/07/02 11:23:52;;;;;;;1.10;1.00;;;32.00;51.20;;;;;;4995650;28;20453;-68
2022/07/02 11:26:21;;;;;;;0.93;0.90;;;31.70;51.00;;;;;;4995421;28;20481;-68
2022/07/02 11:28:48;;;;;;;1.10;1.10;;;31.40;50.70;;;;;;4995309;28;20469;-67
2022/07/02 11:31:16;;;;;;;2.03;1.93;;;30.90;53.30;;;;;;4995193;28;20477;-67
2022/07/02 11:33:47;;;;;;;1.57;1.20;;;30.80;52.60;;;;;;4994821;28;20949;-67
2022/07/02 11:36:15;;;;;;;1.13;1.10;;;30.30;56.50;;;;;;4994839;28;20936;-67
2022/07/02 11:38:44;;;;;;;0.90;0.90;;;30.10;51.20;;;;;;4995187;28;20457;-67
2022/07/02 11:41:22;;;;;;;0.90;0.90;;;29.80;51.10;;;;;;4994964;28;20831;-67
2022/07/02 11:43:50;;;;;;;0.80;0.80;;;29.70;52.80;;;;;;4995086;28;20444;-68
2022/07/02 11:46:19;;;;;;;0.80;0.80;;;29.40;49.20;;;;;;4994836;28;20500;-68
2022/07/02 11:48:47;;;;;;;1.43;0.90;;;29.00;49.30;;;;;;4995190;28;20489;-67
2022/07/02 11:51:16;;;;;;;0.80;0.80;;;28.70;52.00;;;;;;4994842;28;20561;-67
2022/07/02 11:53:43;;;;;;;0.60;0.60;;;28.80;52.10;;;;;;4995097;28;20581;-68
2022/07/02 11:56:12;;;;;;;0.80;0.80;;;28.80;50.60;;;;;;4994923;28;20466;-67
2022/07/02 11:58:43;;;;;;;1.27;0.93;;;28.90;51.80;;;;;;4994804;28;20450;-68
2022/07/02 12:01:27;;;;;;;3.90;0.80;;;29.00;53.40;;;;;;4994793;28;20493;-68
2022/07/02 12:03:56;;;;;;;1.00;1.00;;;29.20;51.50;;;;;;4994985;28;20492;-67
2022/07/02 12:06:26;;;;;;;2.00;0.97;;;29.00;51.50;;;;;;4994695;28;20454;-67
2022/07/02 12:08:54;;;;;;;1.80;0.60;;;29.20;51.70;;;;;;4994873;28;20497;-67
2022/07/02 12:11:22;;;;;;;0.77;0.77;;;29.20;50.30;;;;;;4994947;28;20473;-67
2022/07/02 12:13:51;;;;;;;0.60;0.60;;;29.40;51.90;;;;;;4994542;28;20484;-67
2022/07/02 12:16:21;;;;;;;1.10;1.00;;;29.10;48.70;;;;;;4994369;28;20461;-67
2022/07/02 12:19:00;;;;;;;1.27;1.00;;;28.90;50.50;;;;;;4994431;28;20453;-66
2022/07/02 12:21:34;;;;;;;0.77;0.60;;;28.80;51.70;;;;;;4994124;28;20477;-67
2022/07/02 12:24:02;;;;;;;0.77;0.70;;;28.90;52.90;;;;;;4994519;28;20477;-67
2022/07/02 12:26:30;;;;;;;0.90;0.80;;;28.80;52.80;;;;;;4994379;28;20458;-67
2022/07/02 12:31:45;;;;;;;1.80;0.97;;;28.90;53.80;;;;;;4998434;28;20456;-68
2022/07/02 12:34:12;;;;;;;1.20;0.60;;;29.00;53.40;;;;;;4998409;28;20453;-67
2022/07/02 12:36:55;;;;;;;0.70;0.70;;;29.10;50.50;;;;;;4998547;28;20465;-67
2022/07/02 12:39:37;;;;;;;0.80;0.80;;;29.20;52.20;;;;;;4998425;28;20437;-67
2022/07/02 12:42:13;;;;;;;0.90;0.87;;;29.20;50.10;;;;;;4998307;28;20505;-67
2022/07/02 12:44:51;;;;;;;0.60;0.60;;;29.10;50.20;;;;;;4998211;28;20433;-67
2022/07/02 12:47:27;;;;;;;0.70;0.60;;;29.10;50.00;;;;;;4998158;28;20469;-67
2022/07/02 12:49:55;;;;;;;0.77;0.77;;;29.20;53.80;;;;;;4998141;28;20437;-67
2022/07/02 12:52:24;;;;;;;1.40;0.87;;;29.30;52.00;;;;;;4997571;28;20485;-67
2022/07/02 12:54:51;;;;;;;0.80;0.80;;;29.40;54.20;;;;;;4997556;28;20822;-67
2022/07/02 12:57:20;;;;;;;1.03;1.00;;;29.50;54.90;;;;;;4998044;28;20457;-67
2022/07/02 12:59:48;;;;;;;1.43;0.80;;;29.60;51.20;;;;;;4997914;28;20457;-67
2022/07/02 13:02:17;;;;;;;1.20;0.60;;;29.40;53.40;;;;;;4997812;28;20489;-67
2022/07/02 13:04:44;;;;;;;0.80;0.80;;;29.40;51.80;;;;;;4998231;28;20469;-67
2022/07/02 13:07:13;;;;;;;1.10;1.00;;;29.40;53.30;;;;;;4997814;28;20544;-68
2022/07/02 13:09:42;;;;;;;1.30;0.77;;;29.60;51.60;;;;;;4997817;28;20552;-68
2022/07/02 13:12:11;;;;;;;1.00;1.00;;;29.70;53.30;;;;;;4997651;28;20478;-68
2022/07/02 13:14:38;;;;;;;1.00;0.87;;;29.90;53.10;;;;;;4997793;28;20454;-68
2022/07/02 13:17:05;;;;;;;0.80;0.80;;;29.90;53.30;;;;;;4997363;28;20500;-67
2022/07/02 13:19:33;;;;;;;1.37;0.90;;;29.60;52.70;;;;;;4997947;28;20457;-67
2022/07/02 13:22:00;;;;;;;1.07;1.07;;;29.40;53.30;;;;;;4997769;28;20477;-67
2022/07/02 13:24:26;;;;;;;1.07;0.90;;;29.40;54.20;;;;;;4997824;28;20458;-68
2022/07/02 13:26:54;;;;;;;1.93;1.40;;;29.30;54.20;;;;;;4997449;28;20454;-67
2022/07/02 13:29:21;;;;;;;1.33;1.23;;;29.30;56.20;;;;;;4997281;28;20457;-67
2022/07/02 13:31:48;;;;;;;1.90;1.20;;;29.20;53.50;;;;;;4997665;28;20972;-67
2022/07/02 13:34:14;;;;;;;1.10;1.10;;;29.00;53.10;;;;;;4997191;28;20464;-67
2022/07/02 13:36:41;;;;;;;0.90;0.90;;;28.70;52.20;;;;;;4997151;28;20457;-67
2022/07/02 13:39:08;;;;;;;5.70;0.83;;;28.70;54.10;;;;;;4997203;28;20826;-67
2022/07/02 13:41:34;;;;;;;1.67;1.20;;;28.60;52.00;;;;;;4996906;28;20565;-68
2022/07/02 13:44:03;;;;;;;1.07;1.07;;;28.70;55.10;;;;;;4997312;28;20453;-68
2022/07/02 13:46:30;;;;;;;0.90;0.90;;;28.90;52.10;;;;;;4996819;28;20870;-68
2022/07/02 13:48:57;;;;;;;0.80;0.80;;;29.10;53.40;;;;;;4997071;28;20485;-67
2022/07/02 13:51:23;;;;;;;0.90;0.90;;;29.10;53.70;;;;;;4996884;28;20480;-68
2022/07/02 13:53:50;;;;;;;0.83;0.83;;;29.00;53.00;;;;;;5000029;28;20463;-67
2022/07/02 13:56:17;;;;;;;1.00;1.00;;;29.00;53.90;;;;;;5000517;28;20819;-67
2022/07/02 13:58:44;;;;;;;0.83;0.83;;;28.90;54.10;;;;;;4998525;28;20449;-67
2022/07/02 14:01:12;;;;;;;1.27;0.80;;;28.70;53.30;;;;;;4996808;28;20881;-67
2022/07/02 14:03:39;;;;;;;0.70;0.70;;;28.70;54.20;;;;;;4996855;28;20458;-67
2022/07/02 14:06:06;;;;;;;1.27;0.83;;;28.60;53.20;;;;;;4996432;28;20454;-67
2022/07/02 14:08:32;;;;;;;1.10;1.00;;;28.60;53.50;;;;;;4996595;28;20554;-67
2022/07/02 14:10:59;;;;;;;1.20;1.10;;;28.60;54.10;;;;;;4996812;28;20473;-67
2022/07/02 14:13:26;;;;;;;0.93;0.93;;;28.80;54.20;;;;;;4996879;28;20524;-67
2022/07/02 14:15:53;;;;;;;0.87;0.87;;;28.60;53.70;;;;;;4996136;28;21008;-68
2022/07/02 14:18:21;;;;;;;0.63;0.63;;;28.60;54.70;;;;;;4996204;28;21084;-68
2022/07/02 14:20:47;;;;;;;0.90;0.90;;;28.70;54.40;;;;;;4996360;28;20474;-67
2022/07/02 14:23:14;;;;;;;0.97;0.97;;;28.70;54.80;;;;;;4996341;28;20461;-67
2022/07/02 14:25:41;;;;;;;1.70;0.80;;;28.70;54.50;;;;;;4996120;28;20960;-67
2022/07/02 14:28:07;;;;;;;0.90;0.90;;;28.60;54.70;;;;;;4996086;28;20475;-68
2022/07/02 14:30:34;;;;;;;1.33;1.33;;;28.70;55.50;;;;;;4995971;28;20524;-67
2022/07/02 14:33:01;;;;;;;0.93;0.90;;;28.70;55.80;;;;;;4996159;28;20454;-67
2022/07/02 14:35:29;;;;;;;1.90;1.00;;;28.60;54.60;;;;;;4995917;28;20458;-67
2022/07/02 14:37:56;;;;;;;1.00;0.87;;;28.50;55.70;;;;;;4996007;28;20469;-67
2022/07/02 14:40:22;;;;;;;1.97;1.20;;;28.30;55.20;;;;;;4995928;28;20549;-67
2022/07/02 14:42:49;;;;;;;0.90;0.90;;;28.40;56.50;;;;;;4995671;28;20963;-67
2022/07/02 14:45:16;;;;;;;0.93;0.93;;;28.50;57.40;;;;;;4995780;28;20453;-67
2022/07/02 14:47:43;;;;;;;1.00;0.93;;;28.50;56.50;;;;;;4995757;28;20568;-67
2022/07/02 14:50:10;;;;;;;3.83;1.37;;;28.60;57.50;;;;;;4995298;28;20468;-67
2022/07/02 14:52:38;;;;;;;1.30;1.20;;;28.70;56.20;;;;;;4995576;28;20474;-67
2022/07/02 14:55:06;;;;;;;1.30;0.80;;;28.70;57.70;;;;;;4995690;28;20461;-68
2022/07/02 14:57:32;;;;;;;1.60;0.90;;;28.80;57.20;;;;;;4995664;28;20450;-68
2022/07/02 14:59:59;;;;;;;1.07;0.90;;;28.70;56.90;;;;;;4995517;28;20458;-68
2022/07/02 15:02:26;;;;;;;1.17;1.17;;;28.80;56.80;;;;;;4995434;28;20481;-67
2022/07/02 15:04:52;;;;;;;1.07;1.00;;;28.70;55.30;;;;;;4995136;28;20817;-68
2022/07/02 15:07:19;;;;;;;1.33;0.90;;;28.60;55.30;;;;;;4994996;28;20823;-67
2022/07/02 15:09:47;;;;;;;1.67;1.20;;;28.70;56.50;;;;;;4995060;28;20454;-67
2022/07/02 15:12:14;;;;;;;1.23;0.70;;;28.70;57.20;;;;;;4995159;28;20527;-67
2022/07/02 15:17:25;;;;;;;1.13;1.13;;;28.60;55.70;;;;;;4995563;28;20496;-67
2022/07/02 15:19:52;;;;;;;2.10;0.87;;;28.30;55.30;;;;;;4994769;28;20453;-67
2022/07/02 15:22:23;;;;;;;1.20;1.10;;;28.10;55.70;;;;;;4994873;28;20476;-67
2022/07/02 15:24:54;;;;;;;0.80;0.80;;;28.10;56.40;;;;;;4994735;28;20434;-68
2022/07/02 15:27:20;;;;;;;0.90;0.90;;;28.20;57.00;;;;;;4994987;28;20434;-67
2022/07/02 15:29:48;;;;;;;1.03;1.03;;;28.30;58.10;;;;;;4995030;28;20454;-67
2022/07/02 15:32:15;;;;;;;2.37;1.07;;;28.30;55.90;;;;;;4994894;28;20482;-68
2022/07/02 15:34:43;;;;;;;1.57;1.47;;;28.30;55.90;;;;;;4994986;28;20461;-68
2022/07/02 15:37:10;;;;;;;1.27;0.80;;;28.20;55.70;;;;;;4994701;28;20826;-68
2022/07/02 15:39:38;;;;;;;0.80;0.80;;;28.30;56.90;;;;;;4994981;28;20813;-68
2022/07/02 15:42:08;;;;;;;1.30;1.17;;;28.30;56.80;;;;;;4994720;28;20528;-68
2022/07/02 15:44:35;;;;;;;0.83;0.83;;;28.40;56.30;;;;;;4995052;28;20464;-68
2022/07/02 15:47:02;;;;;;;1.47;0.83;;;28.50;55.60;;;;;;4994692;28;20458;-67
2022/07/02 15:49:29;;;;;;;2.23;0.80;;;28.20;54.70;;;;;;4994353;28;20845;-67
2022/07/02 15:52:01;;;;;;;1.17;1.17;;;28.00;55.40;;;;;;4994579;28;20485;-67
2022/07/02 15:54:31;;;;;;;1.10;1.10;;;28.00;56.20;;;;;;4994823;28;20442;-67
2022/07/02 15:57:01;;;;;;;1.30;1.30;;;28.10;56.60;;;;;;4994917;28;20446;-68
2022/07/02 15:59:31;;;;;;;1.10;0.77;;;28.20;57.00;;;;;;4994377;28;20992;-69
2022/07/02 16:02:00;;;;;;;1.87;1.77;;;28.20;55.30;;;;;;4993400;28;20485;-69
2022/07/02 16:04:32;;;;;;;1.30;1.30;;;28.10;55.70;;;;;;4994578;28;20454;-68
2022/07/02 16:07:01;;;;;;;1.63;1.13;;;28.10;55.50;;;;;;4994643;28;20477;-66
2022/07/02 16:09:28;;;;;;;1.10;1.00;;;28.10;56.10;;;;;;4994467;28;20484;-67
2022/07/02 16:11:57;;;;;;;1.63;1.00;;;28.00;55.00;;;;;;4995428;28;20470;-67
2022/07/02 16:14:24;;;;;;;1.23;0.90;;;28.00;55.00;;;;;;4995837;28;20473;-68
2022/07/02 16:16:52;;;;;;;1.33;1.23;;;28.10;55.30;;;;;;4995350;28;20453;-68
2022/07/02 16:19:20;;;;;;;0.90;0.90;;;28.00;55.40;;;;;;4994382;28;20935;-67
2022/07/02 16:21:48;;;;;;;1.37;1.00;;;28.00;55.80;;;;;;4994261;28;20481;-67
2022/07/02 16:24:16;;;;;;;1.10;1.00;;;28.10;56.10;;;;;;4994590;28;20469;-67
2022/07/02 16:26:43;;;;;;;1.60;1.50;;;28.10;55.50;;;;;;4994671;28;20869;-67
2022/07/02 16:29:10;;;;;;;0.80;0.80;;;28.10;55.10;;;;;;4994252;28;20532;-67
2022/07/02 16:31:44;;;;;;;1.00;1.00;;;28.10;55.10;;;;;;4994962;28;20481;-67
2022/07/02 16:34:19;;;;;;;3.87;1.20;;;28.00;55.70;;;;;;4993962;28;20853;-68
2022/07/02 16:36:49;;;;;;;2.73;1.00;;;27.90;55.40;;;;;;4994373;28;20477;-67
2022/07/02 16:39:18;;;;;;;3.37;1.30;;;27.90;55.70;;;;;;4994323;28;20493;-67
2022/07/02 16:41:54;;;;;;;0.90;0.90;;;27.90;56.10;;;;;;4994154;28;20501;-68
2022/07/02 16:44:24;;;;;;;1.00;1.00;;;27.90;56.90;;;;;;4994399;28;20449;-67
2022/07/02 16:46:54;;;;;;;1.83;1.73;;;27.70;55.60;;;;;;4994972;28;20497;-67
2022/07/02 16:49:28;;;;;;;1.17;1.10;;;27.60;54.90;;;;;;4994323;28;20480;-67
2022/07/02 16:51:59;;;;;;;1.60;1.50;;;27.60;54.20;;;;;;4994181;28;20484;-67
2022/07/02 16:54:26;;;;;;;6.30;5.80;;;27.50;54.90;;;;;;4994129;28;20438;-67
2022/07/02 16:56:53;;;;;;;4.20;3.90;;;27.60;55.60;;;;;;4994449;28;20873;-68
2022/07/02 16:59:21;;;;;;;1.57;1.47;;;27.50;55.50;;;;;;4994974;28;20454;-68
2022/07/02 17:01:48;;;;;;;1.00;0.80;;;27.40;55.20;;;;;;4999293;28;20481;-67
2022/07/02 17:04:16;;;;;;;1.00;0.90;;;27.40;55.90;;;;;;4998208;28;20468;-67